Concho, Arizona
Current Conditions -  °F | °C
As of 4:54 AM on Tuesday 21 Oct 2014 (Local Time) from KSJN Reporting Station
Clear Clear  
Wind Chill: 41°   Ceiling: Unl
Heat Index: 41°   Visibility: 10mi
Dew Point: 40°   Wind: 3mph
Humidity: 96%   Direction: 250°WSW
Pressure: 30.11"   Gusts: NA
Location:  34.48°N, 109.61°W
Report Text: KSJN 211154Z AUTO 25003KT 10SM CLR 05/04 A3011 RMK AO2 SLP143 T00500044 10106 20050 55003
Loading
Personal Weather Stations






























Interactive Weather Map
Tropical Storm Tracking
New forecast layout! Learn more

10-Day Weather Forecast

Advertisements
Track Severe Weather on mobile